Time;durP1;ratioP1;P1;durP2;ratioP2;P2;SDS_P1;SDS_P2;PMS_P1;PMS_P2;Temp;Humidity;BMP_temperature;BMP_pressure;BME280_temperature;BME280_humidity;BME280_pressure;Samples;Min_cycle;Max_cycle;Signal;HPM_P1;HPM_P2
2021/12/06 00:01:59;;;;;;;44.6;54;;;;;;;2.9;78.5;97810;;;;
2021/12/06 00:13:00;;;;;;;44.6;54;;;;;;;2.6;78.6;97810;;;;
2021/12/06 00:22:59;;;;;;;44.6;54;;;;;;;2.5;78.9;97820;;;;
2021/12/06 00:34:03;;;;;;;47.5;53.4;;;;;;;2.5;78.9;97800;;;;
2021/12/06 00:44:59;;;;;;;47.5;53.4;;;;;;;2.4;78.9;97810;;;;
2021/12/06 00:54:59;;;;;;;47.5;53.4;;;;;;;2.3;79.4;97810;;;;
2021/12/06 01:05:59;;;;;;;48.5;57;;;;;;;2.3;79.4;97810;;;;
2021/12/06 01:15:59;;;;;;;48.5;57;;;;;;;2.3;79.4;97810;;;;
2021/12/06 01:27:12;;;;;;;48.5;57;;;;;;;2.3;79.2;97810;;;;
2021/12/06 01:46:59;;;;;;;48.1;54.5;;;;;;;2.3;79.4;97780;;;;
2021/12/06 01:57:59;;;;;;;48.1;54.5;;;;;;;2.3;79.2;97790;;;;
2021/12/06 02:08:59;;;;;;;44.5;54.2;;;;;;;2.2;79.3;97800;;;;
2021/12/06 02:19:03;;;;;;;44.5;54.2;;;;;;;2;80.5;97810;;;;
2021/12/06 02:28:59;;;;;;;44.5;54.2;;;;;;;2.2;80.5;97810;;;;
2021/12/06 02:38:59;;;;;;;50.3;62.4;;;;;;;2.3;79.8;97800;;;;
2021/12/06 02:50:06;;;;;;;50.3;62.4;;;;;;;2.2;79.8;97820;;;;
2021/12/06 03:00:59;;;;;;;49.8;61.8;;;;;;;2.3;79.8;97830;;;;
2021/12/06 03:11:59;;;;;;;49.8;61.8;;;;;;;2.3;80;97810;;;;
2021/12/06 03:21:59;;;;;;;49.8;61.8;;;;;;;2.3;80;97810;;;;
2021/12/06 03:31:59;;;;;;;48;57;;;;;;;2.4;79.6;97800;;;;
2021/12/06 03:42:59;;;;;;;48;57;;;;;;;2.4;79.6;97790;;;;
2021/12/06 03:52:59;;;;;;;48;57;;;;;;;2.4;79.5;97800;;;;
2021/12/06 04:02:59;;;;;;;51.9;65.8;;;;;;;2.5;79.8;97810;;;;
2021/12/06 04:12:59;;;;;;;51.9;65.8;;;;;;;2.5;79.4;97810;;;;
2021/12/06 04:23:59;;;;;;;51.9;65.8;;;;;;;2.5;79.2;97810;;;;
2021/12/06 04:33:59;;;;;;;52;63.3;;;;;;;2.5;79.3;97850;;;;
2021/12/06 04:44:59;;;;;;;52;63.3;;;;;;;2.5;79.4;97840;;;;
2021/12/06 04:54:59;;;;;;;52;63.3;;;;;;;2.5;79.4;97840;;;;
2021/12/06 05:05:59;;;;;;;56;64.5;;;;;;;2.3;80.1;97850;;;;
2021/12/06 05:15:59;;;;;;;56;64.5;;;;;;;2.3;80;97880;;;;
2021/12/06 05:25:59;;;;;;;56;64.5;;;;;;;2.4;80;97890;;;;
2021/12/06 05:36:59;;;;;;;55.3;63.2;;;;;;;2.4;80;97890;;;;
2021/12/06 05:47:59;;;;;;;55.3;63.2;;;;;;;2.5;79.7;97890;;;;
2021/12/06 05:58:00;;;;;;;55.3;63.2;;;;;;;2.4;79.8;97890;;;;
2021/12/06 06:08:59;;;;;;;59;71.2;;;;;;;2.5;80.1;97890;;;;
2021/12/06 06:19:59;;;;;;;59;71.2;;;;;;;2.5;80.1;97900;;;;
2021/12/06 06:29:59;;;;;;;72.7;82.3;;;;;;;2.5;80.2;97910;;;;
2021/12/06 06:41:00;;;;;;;72.7;82.3;;;;;;;2.4;80.5;97930;;;;
2021/12/06 06:50:59;;;;;;;72.7;82.3;;;;;;;2.5;80.4;97950;;;;
2021/12/06 07:00:59;;;;;;;75;89.6;;;;;;;2.5;80.3;97970;;;;
2021/12/06 07:12:00;;;;;;;75;89.6;;;;;;;2.5;80.3;97990;;;;
2021/12/06 07:22:59;;;;;;;75;89.6;;;;;;;2.5;79.9;97980;;;;
2021/12/06 07:33:59;;;;;;;71.9;90.2;;;;;;;2.5;79.9;98000;;;;
2021/12/06 07:44:59;;;;;;;71.9;90.2;;;;;;;2.5;79.9;98000;;;;
2021/12/06 07:55:00;;;;;;;71.9;90.2;;;;;;;2.5;79.8;98000;;;;
2021/12/06 08:05:59;;;;;;;70.4;80.2;;;;;;;2.5;80.1;98000;;;;
2021/12/06 08:15:59;;;;;;;70.4;80.2;;;;;;;2.5;79.8;98010;;;;
2021/12/06 08:25:59;;;;;;;70.4;80.2;;;;;;;2.5;80.1;98010;;;;
2021/12/06 08:35:59;;;;;;;62.2;77.7;;;;;;;2.6;80;98020;;;;
2021/12/06 08:45:59;;;;;;;62.2;77.7;;;;;;;2.7;80;98020;;;;
2021/12/06 08:55:59;;;;;;;62.2;77.7;;;;;;;2.7;79.6;98030;;;;
2021/12/06 09:06:59;;;;;;;54.4;66.7;;;;;;;2.7;80;98040;;;;
2021/12/06 09:16:59;;;;;;;54.4;66.7;;;;;;;2.8;79.8;98040;;;;
2021/12/06 09:27:59;;;;;;;54.4;66.7;;;;;;;2.7;79.9;98050;;;;
2021/12/06 09:39:00;;;;;;;47.1;56.1;;;;;;;2.5;80.4;98050;;;;
2021/12/06 09:49:00;;;;;;;47.1;56.1;;;;;;;2.6;80;98050;;;;
2021/12/06 09:59:59;;;;;;;36;44.2;;;;;;;2.7;80.1;98050;;;;
2021/12/06 10:10:59;;;;;;;36;44.2;;;;;;;2.7;80;98040;;;;
2021/12/06 10:20:59;;;;;;;36;44.2;;;;;;;2.7;79.9;98040;;;;
2021/12/06 10:30:59;;;;;;;36.6;43.7;;;;;;;2.7;80.1;98040;;;;
2021/12/06 10:40:59;;;;;;;36.6;43.7;;;;;;;2.7;80.3;98050;;;;
2021/12/06 10:51:59;;;;;;;36.6;43.7;;;;;;;2.9;79.8;98050;;;;
2021/12/06 11:01:59;;;;;;;37.1;43.5;;;;;;;2.8;79.9;98050;;;;
2021/12/06 11:11:59;;;;;;;37.1;43.5;;;;;;;2.7;80.3;98050;;;;
2021/12/06 11:22:59;;;;;;;37.1;43.5;;;;;;;2.5;80.6;98050;;;;
2021/12/06 11:33:59;;;;;;;36.5;40.8;;;;;;;2.4;80.6;98060;;;;
2021/12/06 11:43:59;;;;;;;36.5;40.8;;;;;;;2.4;80.8;98060;;;;
2021/12/06 11:53:59;;;;;;;36.5;40.8;;;;;;;2.3;81.3;98060;;;;
2021/12/06 12:04:59;;;;;;;41.5;46.5;;;;;;;2.3;81.2;98060;;;;
2021/12/06 12:15:01;;;;;;;41.5;46.5;;;;;;;2.1;81.6;98060;;;;
2021/12/06 12:26:02;;;;;;;41.5;46.5;;;;;;;2.2;81.5;98060;;;;
2021/12/06 12:35:59;;;;;;;41.5;53.7;;;;;;;2.2;81.5;98060;;;;
2021/12/06 12:46:59;;;;;;;41.5;53.7;;;;;;;2.3;81.6;98060;;;;
2021/12/06 12:57:59;;;;;;;41.5;53.7;;;;;;;2.2;81.9;98070;;;;
2021/12/06 13:09:01;;;;;;;41.6;49.4;;;;;;;2.2;82;98090;;;;
2021/12/06 13:20:07;;;;;;;41.6;49.4;;;;;;;2.1;81.9;98100;;;;
2021/12/06 13:30:00;;;;;;;42.1;52;;;;;;;2.1;82;98110;;;;
2021/12/06 13:39:59;;;;;;;42.1;52;;;;;;;2;82;98110;;;;
2021/12/06 13:49:59;;;;;;;42.1;52;;;;;;;1.9;82.1;98130;;;;
2021/12/06 14:00:05;;;;;;;37.9;44.5;;;;;;;1.7;82.3;98140;;;;
2021/12/06 14:11:00;;;;;;;37.9;44.5;;;;;;;1.7;82.5;98170;;;;
2021/12/06 14:22:00;;;;;;;37.9;44.5;;;;;;;1.8;82.3;98170;;;;
2021/12/06 14:32:00;;;;;;;35.9;48.1;;;;;;;1.7;82.3;98180;;;;
2021/12/06 14:42:00;;;;;;;35.9;48.1;;;;;;;1.6;82.2;98170;;;;
2021/12/06 14:52:59;;;;;;;35.9;48.1;;;;;;;1.5;82.3;98190;;;;
2021/12/06 15:03:01;;;;;;;31.4;38.5;;;;;;;1.5;82.6;98180;;;;
2021/12/06 15:13:00;;;;;;;31.4;38.5;;;;;;;1.5;82.3;98180;;;;
2021/12/06 15:24:00;;;;;;;31.4;38.5;;;;;;;1.5;82.2;98190;;;;
2021/12/06 15:34:59;;;;;;;31.8;41.4;;;;;;;1.5;82.3;98200;;;;
2021/12/06 15:45:00;;;;;;;31.8;41.4;;;;;;;1.6;82.3;98210;;;;
2021/12/06 15:55:00;;;;;;;31.8;41.4;;;;;;;1.6;82;98210;;;;
2021/12/06 16:06:00;;;;;;;35.9;47.7;;;;;;;1.6;82;98210;;;;
2021/12/06 16:17:00;;;;;;;35.9;47.7;;;;;;;1.5;82.1;98230;;;;
2021/12/06 16:27:00;;;;;;;35.9;47.7;;;;;;;1.6;82;98230;;;;
2021/12/06 16:37:00;;;;;;;36.3;50.5;;;;;;;1.6;82.1;98230;;;;
2021/12/06 16:47:00;;;;;;;36.3;50.5;;;;;;;1.5;81.9;98230;;;;
2021/12/06 16:58:00;;;;;;;38.5;51.9;;;;;;;1.6;81.8;98220;;;;
2021/12/06 17:08:00;;;;;;;38.5;51.9;;;;;;;1.6;81.8;98220;;;;
2021/12/06 17:18:00;;;;;;;38.5;51.9;;;;;;;1.6;81.6;98220;;;;
2021/12/06 17:28:00;;;;;;;40.7;47.8;;;;;;;1.6;81.7;98230;;;;
2021/12/06 17:38:00;;;;;;;40.7;47.8;;;;;;;1.6;81.7;98250;;;;
2021/12/06 17:49:00;;;;;;;40.7;47.8;;;;;;;1.5;81.8;98250;;;;
2021/12/06 18:00:00;;;;;;;42.4;54.8;;;;;;;1.5;81.5;98260;;;;
2021/12/06 18:10:00;;;;;;;42.4;54.8;;;;;;;1.6;81.6;98270;;;;
2021/12/06 18:21:00;;;;;;;42.4;54.8;;;;;;;1.6;81.5;98280;;;;
2021/12/06 18:31:00;;;;;;;39.6;50.2;;;;;;;1.6;81.3;98290;;;;
2021/12/06 18:41:01;;;;;;;39.6;50.2;;;;;;;1.5;81.3;98290;;;;
2021/12/06 18:51:01;;;;;;;39.6;50.2;;;;;;;1.7;81.2;98300;;;;
2021/12/06 19:01:00;;;;;;;38.8;49.6;;;;;;;1.5;81.5;98310;;;;
2021/12/06 19:11:00;;;;;;;38.8;49.6;;;;;;;1.6;81.1;98320;;;;
2021/12/06 19:22:00;;;;;;;38.8;49.6;;;;;;;1.7;81.1;98320;;;;
2021/12/06 19:32:00;;;;;;;36.7;47.1;;;;;;;1.5;81.4;98330;;;;
2021/12/06 19:42:00;;;;;;;36.7;47.1;;;;;;;1.5;81.2;98330;;;;
2021/12/06 19:53:01;;;;;;;36.7;47.1;;;;;;;1.6;81.4;98330;;;;
2021/12/06 20:04:00;;;;;;;37.9;48.2;;;;;;;1.5;81.2;98320;;;;
2021/12/06 20:14:00;;;;;;;37.9;48.2;;;;;;;1.5;81.5;98320;;;;
2021/12/06 20:24:00;;;;;;;37.9;48.2;;;;;;;1.3;81.7;98320;;;;
2021/12/06 20:34:00;;;;;;;34.9;47.7;;;;;;;1.4;81.7;98320;;;;
2021/12/06 20:44:00;;;;;;;34.9;47.7;;;;;;;1.3;81.7;98320;;;;
2021/12/06 20:54:00;;;;;;;34.9;47.7;;;;;;;1.2;82.1;98310;;;;
2021/12/06 21:05:00;;;;;;;39.3;50.9;;;;;;;1.3;82;98310;;;;
2021/12/06 21:15:07;;;;;;;39.3;50.9;;;;;;;1.3;82;98310;;;;
2021/12/06 21:26:00;;;;;;;39.3;50.9;;;;;;;1.3;82;98300;;;;
2021/12/06 21:37:00;;;;;;;59.4;74.7;;;;;;;1.3;81.9;98290;;;;
2021/12/06 21:47:00;;;;;;;59.4;74.7;;;;;;;1.3;81.7;98300;;;;
2021/12/06 21:58:00;;;;;;;42.9;57.5;;;;;;;1.5;81.5;98300;;;;
2021/12/06 22:08:00;;;;;;;42.9;57.5;;;;;;;1.4;81.4;98300;;;;
2021/12/06 22:18:00;;;;;;;42.9;57.5;;;;;;;1.5;81.4;98300;;;;
2021/12/06 22:29:00;;;;;;;44.1;57.9;;;;;;;1.4;81.3;98310;;;;
2021/12/06 22:40:00;;;;;;;44.1;57.9;;;;;;;1.5;81.1;98310;;;;
2021/12/06 22:50:00;;;;;;;44.1;57.9;;;;;;;1.4;81;98300;;;;
2021/12/06 23:00:00;;;;;;;43;54.7;;;;;;;1.5;81.1;98300;;;;
2021/12/06 23:10:00;;;;;;;43;54.7;;;;;;;1.6;80.8;98310;;;;
2021/12/06 23:20:00;;;;;;;43;54.7;;;;;;;1.7;80.9;98310;;;;
2021/12/06 23:30:00;;;;;;;36.7;45.9;;;;;;;1.7;80.2;98300;;;;
2021/12/06 23:41:09;;;;;;;36.7;45.9;;;;;;;1.6;80.4;98280;;;;
2021/12/06 23:51:00;;;;;;;36.7;45.9;;;;;;;1.7;80.1;98310;;;;
